Eucla Motel, Australia
Current Conditions -  °F | °C
As of 1:00 PM on Sunday 26 Oct 2014 (Local Time) from YCDU Reporting Station
Clear Clear  
Wind Chill: 75°   Ceiling: Unl
Heat Index: 75°   Visibility: 6mi
Dew Point: 59°   Wind: 22mph
Humidity: 57%   Direction: 230°SW
Pressure: 29.77"   Gusts: NA
Location:  31.68°S, 128.88°E
Report Text: YCDU 260500Z AUTO 23019KT 9999 // NCD 24/15 Q1008
Loading
Personal Weather Stations






























Interactive Weather Map
Tropical Storm Tracking
New forecast layout! Learn more

10-Day Weather Forecast

Advertisements
Track Severe Weather on mobile